createdAt,value
2022-10-16T00:00:58.773Z,14.80
2022-10-16T00:03:29.510Z,14.80
2022-10-16T00:06:01.227Z,14.80
2022-10-16T00:08:28.645Z,14.50
2022-10-16T00:11:00.777Z,14.80
2022-10-16T00:13:27.428Z,14.40
2022-10-16T00:15:57.187Z,14.50
2022-10-16T00:18:25.063Z,14.60
2022-10-16T00:20:52.094Z,14.60
2022-10-16T00:23:19.033Z,14.60
2022-10-16T00:25:45.944Z,14.50
2022-10-16T00:28:12.844Z,14.40
2022-10-16T00:30:40.676Z,14.50
2022-10-16T00:33:07.328Z,14.40
2022-10-16T00:35:33.985Z,14.20
2022-10-16T00:38:00.616Z,14.40
2022-10-16T00:40:29.229Z,14.40
2022-10-16T00:42:55.954Z,14.40
2022-10-16T00:45:22.593Z,14.20
2022-10-16T00:47:52.458Z,14.30
2022-10-16T00:50:30.964Z,14.00
2022-10-16T00:52:59.552Z,14.20
2022-10-16T00:55:27.177Z,14.20
2022-10-16T00:57:53.934Z,14.10
2022-10-16T01:00:24.486Z,14.10
2022-10-16T01:02:55.971Z,14.10
2022-10-16T01:05:25.597Z,14.10
2022-10-16T01:07:59.914Z,14.10
2022-10-16T01:10:55.275Z,14.10
2022-10-16T01:13:39.490Z,14.10
2022-10-16T01:16:30.633Z,14.10
2022-10-16T01:19:01.442Z,14.10
2022-10-16T01:21:32.759Z,14.20
2022-10-16T01:24:18.647Z,14.20
2022-10-16T01:26:59.019Z,14.20
2022-10-16T01:29:54.608Z,14.20
2022-10-16T01:32:38.257Z,14.10
2022-10-16T01:35:23.081Z,14.10
2022-10-16T01:38:07.379Z,14.10
2022-10-16T01:40:38.004Z,14.00
2022-10-16T01:43:16.523Z,14.00
2022-10-16T01:45:45.919Z,14.00
2022-10-16T01:48:20.834Z,14.00
2022-10-16T01:51:04.876Z,14.10
2022-10-16T01:53:32.642Z,14.10
2022-10-16T01:56:00.455Z,14.10
2022-10-16T01:58:31.715Z,14.20
2022-10-16T02:00:58.608Z,14.20
2022-10-16T02:03:25.422Z,14.20
2022-10-16T02:05:55.950Z,14.10
2022-10-16T02:08:24.936Z,14.30
2022-10-16T02:10:51.798Z,14.30
2022-10-16T02:13:34.175Z,14.60
2022-10-16T02:16:01.011Z,14.30
2022-10-16T02:18:30.245Z,14.50
2022-10-16T02:21:00.296Z,14.00
2022-10-16T02:23:52.166Z,13.40
2022-10-16T02:26:24.696Z,13.70
2022-10-16T02:28:57.292Z,13.90
2022-10-16T02:31:28.703Z,13.70
2022-10-16T02:33:59.892Z,13.60
2022-10-16T02:36:28.140Z,14.30
2022-10-16T02:38:55.248Z,14.20
2022-10-16T02:41:24.055Z,14.00
2022-10-16T02:43:50.773Z,14.30
2022-10-16T02:46:19.275Z,13.40
2022-10-16T02:48:45.932Z,14.30
2022-10-16T02:51:12.728Z,14.60
2022-10-16T02:53:39.406Z,14.30
2022-10-16T02:56:06.149Z,14.40
2022-10-16T02:58:32.882Z,14.40
2022-10-16T03:00:59.644Z,15.20
2022-10-16T03:03:26.327Z,15.60
2022-10-16T03:05:53.020Z,14.80
2022-10-16T03:08:24.405Z,13.80
2022-10-16T03:10:51.825Z,13.60
2022-10-16T03:13:18.552Z,13.70
2022-10-16T03:15:45.319Z,13.80
2022-10-16T03:18:12.037Z,14.90
2022-10-16T03:20:38.684Z,14.40
2022-10-16T03:23:05.343Z,15.40
2022-10-16T03:25:32.010Z,13.60
2022-10-16T03:27:58.665Z,14.40
2022-10-16T03:30:25.320Z,13.70
2022-10-16T03:32:55.052Z,15.00
2022-10-16T03:35:22.833Z,15.30
2022-10-16T03:37:49.532Z,14.90
2022-10-16T03:40:17.262Z,14.60
2022-10-16T03:42:44.596Z,14.30
2022-10-16T03:45:12.519Z,15.20
2022-10-16T03:47:39.281Z,13.70
2022-10-16T03:50:06.666Z,14.20
2022-10-16T03:52:33.961Z,14.30
2022-10-16T03:55:00.678Z,14.50
2022-10-16T03:57:27.580Z,14.20
2022-10-16T03:59:54.514Z,13.50
2022-10-16T04:02:21.192Z,15.00
2022-10-16T04:04:47.933Z,14.80
2022-10-16T04:07:14.707Z,14.30
2022-10-16T04:09:41.365Z,14.30
2022-10-16T04:12:08.104Z,14.30
2022-10-16T04:14:35.068Z,14.30
2022-10-16T04:17:01.835Z,14.30
2022-10-16T04:19:28.488Z,14.90
2022-10-16T04:21:55.140Z,15.00
2022-10-16T04:24:21.799Z,15.00
2022-10-16T04:26:48.497Z,14.80
2022-10-16T04:29:15.144Z,13.50
2022-10-16T04:31:41.863Z,14.80
2022-10-16T04:34:08.486Z,13.40
2022-10-16T04:36:35.156Z,14.60
2022-10-16T04:39:01.837Z,15.20
2022-10-16T04:41:28.498Z,14.60
2022-10-16T04:43:55.251Z,14.20
2022-10-16T04:46:21.896Z,14.20
2022-10-16T04:48:48.562Z,14.80
2022-10-16T04:51:15.315Z,14.70
2022-10-16T04:53:41.997Z,14.80
2022-10-16T04:56:08.719Z,14.90
2022-10-16T04:58:35.389Z,13.10
2022-10-16T05:01:02.109Z,13.40
2022-10-16T05:03:28.836Z,14.10
2022-10-16T05:05:55.832Z,15.50
2022-10-16T05:08:22.536Z,15.80
2022-10-16T05:10:49.324Z,13.90
2022-10-16T05:13:16.046Z,15.00
2022-10-16T05:15:42.679Z,13.30
2022-10-16T05:18:10.121Z,13.80
2022-10-16T05:20:36.824Z,13.30
2022-10-16T05:23:03.542Z,13.30
2022-10-16T05:25:30.304Z,13.80
2022-10-16T05:27:57.081Z,15.20
2022-10-16T05:30:23.784Z,13.20
2022-10-16T05:32:51.671Z,13.20
2022-10-16T05:35:19.421Z,13.90
2022-10-16T05:37:46.242Z,13.70
2022-10-16T05:40:13.949Z,14.00
2022-10-16T05:42:41.697Z,13.30
2022-10-16T05:45:11.189Z,14.00
2022-10-16T05:47:38.061Z,14.00
2022-10-16T05:50:05.296Z,14.60
2022-10-16T05:52:32.088Z,14.00
2022-10-16T05:54:58.726Z,13.60
2022-10-16T05:57:25.784Z,15.50
2022-10-16T05:59:52.804Z,13.10
2022-10-16T06:02:19.447Z,13.30
2022-10-16T06:04:46.103Z,14.20
2022-10-16T06:07:12.941Z,13.80
2022-10-16T06:09:39.607Z,14.10
2022-10-16T06:12:06.304Z,15.10
2022-10-16T06:14:33.334Z,14.30
2022-10-16T06:16:59.999Z,13.50
2022-10-16T06:19:26.676Z,14.30
2022-10-16T06:21:53.346Z,15.30
2022-10-16T06:24:20.078Z,13.50
2022-10-16T06:26:46.769Z,14.20
2022-10-16T06:29:13.456Z,15.20
2022-10-16T06:31:40.121Z,14.40
2022-10-16T06:34:10.320Z,15.60
2022-10-16T06:36:37.437Z,13.90
2022-10-16T06:39:04.572Z,14.30
2022-10-16T06:41:31.271Z,14.50
2022-10-16T06:43:57.942Z,14.50
2022-10-16T06:46:26.513Z,14.50
2022-10-16T06:48:54.649Z,14.10
2022-10-16T06:51:24.344Z,15.40
2022-10-16T06:54:08.783Z,14.00
2022-10-16T06:56:35.790Z,14.90
2022-10-16T06:59:03.442Z,14.80
2022-10-16T07:01:30.231Z,14.90
2022-10-16T07:03:57.721Z,14.90
2022-10-16T07:06:26.474Z,16.00
2022-10-16T07:08:53.709Z,15.10
2022-10-16T07:11:22.653Z,15.80
2022-10-16T07:13:54.576Z,14.60
2022-10-16T07:16:33.205Z,16.00
2022-10-16T07:19:01.821Z,15.80
2022-10-16T07:21:37.461Z,14.90
2022-10-16T07:24:06.829Z,15.00
2022-10-16T07:26:36.240Z,15.30
2022-10-16T07:29:02.991Z,15.30
2022-10-16T07:31:30.017Z,15.00
2022-10-16T07:33:58.510Z,15.50
2022-10-16T07:36:25.387Z,16.40
2022-10-16T07:38:54.174Z,15.30
2022-10-16T07:41:24.377Z,15.60
2022-10-16T07:43:53.242Z,15.60
2022-10-16T07:46:21.652Z,15.20
2022-10-16T07:48:49.142Z,16.70
2022-10-16T07:51:18.709Z,16.00
2022-10-16T07:53:45.439Z,16.20
2022-10-16T07:56:13.224Z,16.60
2022-10-16T07:58:40.112Z,15.70
2022-10-16T08:01:14.011Z,17.00
2022-10-16T08:03:47.305Z,16.30
2022-10-16T08:06:14.193Z,16.40
2022-10-16T08:08:40.972Z,16.60
2022-10-16T08:11:07.815Z,16.10
2022-10-16T08:13:34.767Z,16.90
2022-10-16T08:16:02.226Z,17.10
2022-10-16T08:18:28.987Z,17.20
2022-10-16T08:21:01.064Z,17.20
2022-10-16T08:23:28.650Z,17.70
2022-10-16T08:25:56.279Z,17.70
2022-10-16T08:28:23.901Z,17.70
2022-10-16T08:30:50.602Z,17.50
2022-10-16T08:33:17.416Z,17.70
2022-10-16T08:35:44.064Z,17.30
2022-10-16T08:38:11.498Z,17.40
2022-10-16T08:40:38.811Z,17.40
2022-10-16T08:43:47.740Z,17.20
2022-10-16T08:46:37.676Z,17.20
2022-10-16T08:49:09.141Z,17.20
2022-10-16T08:51:40.306Z,17.30
2022-10-16T08:54:46.574Z,17.60
2022-10-16T08:57:25.248Z,17.50
2022-10-16T08:59:55.638Z,17.80
2022-10-16T09:02:37.161Z,17.80
2022-10-16T09:05:31.643Z,17.80
2022-10-16T09:10:58.318Z,17.70
2022-10-16T09:13:37.231Z,17.80
2022-10-16T09:16:24.181Z,17.80
2022-10-16T09:18:58.155Z,17.70
2022-10-16T09:21:29.908Z,17.50
2022-10-16T09:24:12.418Z,17.40
2022-10-16T09:26:39.102Z,17.40
2022-10-16T09:29:05.914Z,17.30
2022-10-16T09:31:32.745Z,17.50
2022-10-16T09:34:05.263Z,17.30
2022-10-16T09:36:42.825Z,17.50
2022-10-16T09:39:15.182Z,17.60
2022-10-16T09:41:45.779Z,17.80
2022-10-16T09:44:30.016Z,17.80
2022-10-16T09:47:14.273Z,17.90
2022-10-16T09:49:56.091Z,18.10
2022-10-16T09:52:23.779Z,18.20
2022-10-16T09:55:02.003Z,18.30
2022-10-16T09:57:29.477Z,18.30
2022-10-16T09:59:58.084Z,18.40
2022-10-16T10:02:36.798Z,18.40
2022-10-16T10:05:06.833Z,18.20
2022-10-16T10:07:39.980Z,18.10
2022-10-16T10:10:20.512Z,18.10
2022-10-16T10:12:47.297Z,18.10
2022-10-16T10:15:20.861Z,18.10
2022-10-16T10:17:50.736Z,18.10
2022-10-16T10:20:26.551Z,18.10
2022-10-16T10:22:53.405Z,18.10
2022-10-16T10:25:39.797Z,18.20
2022-10-16T10:28:12.335Z,18.20
2022-10-16T10:31:01.908Z,18.10
2022-10-16T10:33:42.663Z,18.00
2022-10-16T10:36:24.381Z,18.10
2022-10-16T10:39:12.540Z,18.10
2022-10-16T10:41:54.589Z,18.10
2022-10-16T10:44:48.551Z,18.10
2022-10-16T10:47:43.206Z,18.20
2022-10-16T10:51:00.353Z,18.30
2022-10-16T10:53:47.925Z,18.50
2022-10-16T10:56:26.400Z,18.80
2022-10-16T10:58:55.858Z,19.20
2022-10-16T11:01:53.742Z,19.60
2022-10-16T11:04:48.231Z,20.00
2022-10-16T11:07:33.169Z,20.40
2022-10-16T11:10:15.956Z,20.70
2022-10-16T11:12:47.753Z,21.00
2022-10-16T11:15:21.527Z,21.00
2022-10-16T11:18:04.172Z,21.00
2022-10-16T11:20:58.559Z,21.00
2022-10-16T11:23:30.900Z,20.90
2022-10-16T11:26:03.122Z,20.80
2022-10-16T11:28:46.051Z,20.50
2022-10-16T11:31:33.476Z,20.30
2022-10-16T11:34:19.110Z,20.10
2022-10-16T11:37:05.689Z,19.80
2022-10-16T11:39:32.958Z,19.50
2022-10-16T11:42:17.619Z,19.20
2022-10-16T11:45:08.591Z,18.80
2022-10-16T11:48:00.126Z,18.50
2022-10-16T11:50:33.092Z,18.50
2022-10-16T11:53:23.012Z,18.90
2022-10-16T11:55:49.951Z,20.10
2022-10-16T11:58:35.528Z,21.40
2022-10-16T12:01:19.346Z,22.90
2022-10-16T12:03:52.496Z,23.70
2022-10-16T12:06:31.310Z,24.30
2022-10-16T12:09:01.086Z,25.10
2022-10-16T12:11:27.746Z,25.90
2022-10-16T12:14:12.838Z,26.70
2022-10-16T12:16:52.107Z,27.00
2022-10-16T12:19:19.838Z,27.10
2022-10-16T12:21:46.778Z,26.90
2022-10-16T12:24:33.996Z,26.80
2022-10-16T12:27:01.812Z,27.00
2022-10-16T12:29:41.051Z,27.00
2022-10-16T12:32:45.670Z,26.70
2022-10-16T12:35:24.341Z,26.60
2022-10-16T12:37:52.417Z,26.10
2022-10-16T12:40:25.824Z,25.70
2022-10-16T12:42:53.034Z,25.40
2022-10-16T12:45:34.626Z,25.10
2022-10-16T12:48:03.920Z,25.20
2022-10-16T12:50:31.978Z,25.10
2022-10-16T12:52:59.932Z,25.10
2022-10-16T12:55:31.404Z,25.00
2022-10-16T12:58:26.855Z,24.90
2022-10-16T13:01:03.351Z,24.90
2022-10-16T13:03:48.433Z,24.60
2022-10-16T13:06:20.741Z,24.50
2022-10-16T13:09:14.890Z,24.30
2022-10-16T13:12:00.283Z,24.20
2022-10-16T13:14:51.280Z,24.20
2022-10-16T13:17:24.323Z,24.30
2022-10-16T13:20:24.915Z,24.10
2022-10-16T13:23:25.931Z,24.00
2022-10-16T13:26:13.155Z,23.60
2022-10-16T13:28:40.738Z,23.50
2022-10-16T13:31:23.811Z,23.30
2022-10-16T13:33:57.489Z,23.00
2022-10-16T13:36:30.322Z,22.80
2022-10-16T13:39:11.901Z,22.40
2022-10-16T13:41:39.015Z,22.10
2022-10-16T13:44:12.953Z,21.90
2022-10-16T13:46:39.803Z,21.60
2022-10-16T13:49:13.871Z,21.50
2022-10-16T13:51:40.696Z,21.50
2022-10-16T13:54:12.112Z,21.30
2022-10-16T13:56:41.374Z,21.20
2022-10-16T13:59:29.627Z,21.00
2022-10-16T14:01:58.649Z,20.80
2022-10-16T14:04:28.873Z,20.70
2022-10-16T14:06:56.192Z,21.00
2022-10-16T14:09:29.272Z,20.80
2022-10-16T14:12:03.821Z,20.90
2022-10-16T14:14:45.789Z,20.50
2022-10-16T14:17:29.773Z,20.80
2022-10-16T14:20:06.164Z,20.40
2022-10-16T14:22:38.799Z,20.50
2022-10-16T14:25:36.341Z,20.40
2022-10-16T14:28:19.679Z,20.20
2022-10-16T14:30:52.383Z,20.10
2022-10-16T14:33:34.426Z,20.20
2022-10-16T14:36:04.080Z,20.00
2022-10-16T14:38:31.383Z,20.10
2022-10-16T14:41:00.141Z,20.00
2022-10-16T14:43:38.968Z,19.90
2022-10-16T14:46:22.462Z,19.90
2022-10-16T14:48:51.742Z,19.70
2022-10-16T14:51:19.806Z,19.90
2022-10-16T14:53:47.157Z,19.40
2022-10-16T14:56:22.328Z,20.20
2022-10-16T14:58:51.276Z,20.10
2022-10-16T15:01:18.325Z,20.00
2022-10-16T15:03:45.532Z,20.00
2022-10-16T15:06:13.539Z,20.10
2022-10-16T15:08:40.912Z,20.10
2022-10-16T15:11:16.634Z,20.10
2022-10-16T15:13:43.321Z,20.10
2022-10-16T15:16:13.433Z,20.10
2022-10-16T15:18:40.621Z,20.10
2022-10-16T15:21:07.708Z,20.10
2022-10-16T15:23:34.374Z,20.00
2022-10-16T15:26:01.268Z,20.00
2022-10-16T15:28:27.960Z,20.00
2022-10-16T15:30:56.849Z,20.00
2022-10-16T15:33:28.412Z,20.10
2022-10-16T15:35:55.783Z,19.80
2022-10-16T15:38:23.862Z,19.90
2022-10-16T15:40:50.958Z,19.70
2022-10-16T15:43:17.904Z,19.70
2022-10-16T15:45:44.604Z,19.50
2022-10-16T15:48:13.624Z,19.60
2022-10-16T15:50:41.326Z,19.30
2022-10-16T15:53:08.013Z,19.30
2022-10-16T15:55:37.279Z,19.30
2022-10-16T15:58:03.958Z,19.00
2022-10-16T16:00:30.644Z,19.20
2022-10-16T16:02:57.335Z,18.80
2022-10-16T16:05:24.158Z,18.70
2022-10-16T16:07:51.745Z,18.70
2022-10-16T16:10:18.653Z,18.60
2022-10-16T16:12:52.451Z,18.60
2022-10-16T16:15:20.807Z,18.40
2022-10-16T16:17:47.597Z,18.40
2022-10-16T16:20:14.543Z,18.50
2022-10-16T16:22:41.732Z,18.20
2022-10-16T16:25:08.826Z,18.30
2022-10-16T16:27:35.559Z,18.00
2022-10-16T16:30:04.796Z,18.00
2022-10-16T16:32:31.933Z,17.90
2022-10-16T16:34:58.668Z,17.90
2022-10-16T16:37:25.652Z,17.90
2022-10-16T16:39:52.479Z,17.90
2022-10-16T16:42:19.275Z,17.90
2022-10-16T16:44:45.960Z,17.70
2022-10-16T16:47:12.693Z,17.80
2022-10-16T16:49:39.543Z,17.70
2022-10-16T16:52:06.646Z,17.90
2022-10-16T16:57:06.328Z,18.00
2022-10-16T16:59:33.764Z,17.60
2022-10-16T17:02:00.898Z,17.60
2022-10-16T17:04:28.639Z,17.50
2022-10-16T17:06:56.226Z,17.70
2022-10-16T17:09:23.870Z,17.40
2022-10-16T17:11:50.546Z,17.50
2022-10-16T17:14:17.616Z,17.60
2022-10-16T17:16:45.039Z,17.30
2022-10-16T17:19:18.136Z,17.40
2022-10-16T17:21:45.004Z,17.30
2022-10-16T17:24:12.634Z,17.10
2022-10-16T17:26:41.462Z,17.20
2022-10-16T17:29:10.899Z,17.20
2022-10-16T17:31:37.771Z,17.30
2022-10-16T17:34:07.483Z,17.20
2022-10-16T17:36:35.771Z,17.10
2022-10-16T17:39:05.997Z,17.10
2022-10-16T17:41:33.764Z,17.10
2022-10-16T17:44:00.605Z,16.90
2022-10-16T17:46:27.604Z,16.90
2022-10-16T17:48:55.722Z,16.80
2022-10-16T17:51:25.767Z,16.80
2022-10-16T17:53:54.682Z,16.70
2022-10-16T17:56:22.267Z,16.80
2022-10-16T17:58:51.752Z,16.60
2022-10-16T18:01:22.915Z,16.50
2022-10-16T18:04:07.247Z,16.50
2022-10-16T18:06:34.944Z,16.20
2022-10-16T18:09:03.253Z,16.20
2022-10-16T18:11:30.051Z,16.10
2022-10-16T18:13:59.198Z,16.00
2022-10-16T18:16:28.475Z,16.10
2022-10-16T18:18:57.201Z,15.80
2022-10-16T18:21:27.444Z,15.90
2022-10-16T18:23:54.974Z,15.60
2022-10-16T18:26:22.414Z,15.50
2022-10-16T18:28:51.786Z,15.40
2022-10-16T18:31:18.854Z,15.40
2022-10-16T18:33:50.662Z,15.30
2022-10-16T18:36:31.068Z,15.20
2022-10-16T18:38:58.875Z,15.10
2022-10-16T18:41:27.246Z,15.00
2022-10-16T18:43:54.645Z,15.00
2022-10-16T18:46:23.414Z,14.90
2022-10-16T18:48:51.223Z,14.90
2022-10-16T18:51:21.714Z,14.80
2022-10-16T18:53:50.866Z,14.70
2022-10-16T18:56:19.526Z,14.70
2022-10-16T18:58:49.125Z,14.80
2022-10-16T19:01:23.106Z,14.70
2022-10-16T19:03:54.272Z,14.70
2022-10-16T19:06:21.494Z,14.50
2022-10-16T19:08:48.378Z,14.50
2022-10-16T19:11:18.818Z,14.40
2022-10-16T19:14:04.546Z,14.30
2022-10-16T19:16:34.101Z,14.20
2022-10-16T19:19:03.256Z,14.20
2022-10-16T19:21:30.726Z,14.30
2022-10-16T19:23:59.829Z,14.40
2022-10-16T19:26:27.723Z,14.00
2022-10-16T19:28:59.201Z,14.10
2022-10-16T19:31:29.208Z,14.00
2022-10-16T19:33:58.778Z,13.80
2022-10-16T19:36:31.852Z,13.80
2022-10-16T19:39:07.334Z,13.80
2022-10-16T19:41:36.094Z,13.80
2022-10-16T19:44:05.463Z,13.70
2022-10-16T19:46:33.664Z,13.70
2022-10-16T19:49:03.080Z,13.60
2022-10-16T19:51:32.492Z,13.80
2022-10-16T19:54:01.809Z,13.70
2022-10-16T19:56:30.377Z,13.70
2022-10-16T19:58:58.620Z,13.70
2022-10-16T20:01:27.588Z,13.60
2022-10-16T20:03:54.599Z,13.60
2022-10-16T20:06:21.972Z,13.70
2022-10-16T20:08:51.610Z,13.80
2022-10-16T20:11:21.694Z,13.70
2022-10-16T20:13:48.527Z,13.80
2022-10-16T20:16:17.931Z,13.60
2022-10-16T20:18:45.791Z,13.70
2022-10-16T20:21:15.257Z,13.80
2022-10-16T20:23:42.471Z,13.60
2022-10-16T20:26:11.520Z,13.70
2022-10-16T20:28:40.673Z,13.60
2022-10-16T20:31:18.258Z,13.60
2022-10-16T20:33:45.390Z,13.50
2022-10-16T20:36:13.493Z,13.50
2022-10-16T20:38:41.241Z,13.60
2022-10-16T20:41:08.741Z,13.50
2022-10-16T20:43:39.206Z,13.60
2022-10-16T20:46:08.835Z,13.30
2022-10-16T20:48:37.096Z,13.40
2022-10-16T20:51:23.936Z,13.20
2022-10-16T20:53:57.832Z,13.10
2022-10-16T20:56:26.049Z,13.20
2022-10-16T20:58:53.131Z,12.90
2022-10-16T21:01:22.435Z,13.00
2022-10-16T21:03:55.867Z,13.00
2022-10-16T21:06:23.451Z,13.00
2022-10-16T21:08:50.721Z,12.90
2022-10-16T21:11:27.298Z,13.00
2022-10-16T21:13:56.037Z,12.80
2022-10-16T21:16:26.107Z,12.90
2022-10-16T21:19:00.694Z,12.70
2022-10-16T21:21:30.393Z,12.90
2022-10-16T21:23:58.327Z,12.60
2022-10-16T21:26:27.029Z,12.70
2022-10-16T21:28:59.110Z,12.60
2022-10-16T21:31:26.299Z,12.60
2022-10-16T21:33:59.360Z,12.60
2022-10-16T21:36:31.563Z,12.70
2022-10-16T21:39:06.780Z,12.70
2022-10-16T21:41:34.356Z,12.80
2022-10-16T21:44:07.915Z,12.60
2022-10-16T21:46:42.743Z,12.60
2022-10-16T21:49:15.883Z,12.60
2022-10-16T21:51:45.827Z,12.70
2022-10-16T21:54:18.555Z,12.50
2022-10-16T21:56:48.565Z,12.50
2022-10-16T21:59:15.451Z,12.50
2022-10-16T22:01:43.013Z,12.40
2022-10-16T22:04:11.452Z,12.50
2022-10-16T22:06:41.369Z,12.20
2022-10-16T22:09:08.822Z,12.30
2022-10-16T22:11:37.578Z,12.20
2022-10-16T22:14:27.208Z,12.20
2022-10-16T22:16:53.862Z,12.10
2022-10-16T22:19:21.994Z,12.20
2022-10-16T22:21:51.811Z,12.00
2022-10-16T22:24:18.820Z,11.90
2022-10-16T22:26:45.659Z,11.80
2022-10-16T22:29:13.930Z,12.10
2022-10-16T22:31:40.793Z,11.80
2022-10-16T22:34:07.914Z,11.80
2022-10-16T22:36:34.944Z,11.70
2022-10-16T22:39:04.867Z,11.60
2022-10-16T22:41:32.064Z,11.60
2022-10-16T22:43:58.738Z,11.60
2022-10-16T22:46:29.557Z,11.60
2022-10-16T22:48:56.806Z,11.80
2022-10-16T22:51:24.524Z,11.90
2022-10-16T22:53:51.468Z,11.60
2022-10-16T22:56:20.158Z,11.60
2022-10-16T22:58:56.003Z,11.70
2022-10-16T23:01:28.530Z,11.60
2022-10-16T23:03:55.425Z,11.50
2022-10-16T23:06:24.497Z,11.50
2022-10-16T23:08:56.341Z,11.50
2022-10-16T23:11:28.980Z,11.40
2022-10-16T23:13:58.735Z,11.40
2022-10-16T23:16:28.621Z,11.50
2022-10-16T23:18:55.408Z,11.50
2022-10-16T23:21:24.251Z,11.30
2022-10-16T23:24:00.049Z,11.30
2022-10-16T23:26:30.036Z,11.50
2022-10-16T23:29:00.954Z,11.50
2022-10-16T23:31:33.952Z,11.10
2022-10-16T23:34:03.458Z,11.10
2022-10-16T23:36:40.400Z,11.00
2022-10-16T23:39:07.108Z,11.10
2022-10-16T23:41:36.133Z,10.90
2022-10-16T23:44:03.038Z,10.80
2022-10-16T23:46:29.703Z,10.80
2022-10-16T23:49:03.565Z,10.80
2022-10-16T23:51:32.507Z,10.80
2022-10-16T23:54:01.554Z,10.70
2022-10-16T23:56:28.267Z,10.70
2022-10-16T23:59:02.910Z,10.60
